CheckWX is a tool to help pilots better visualize weather data.  It is not intended as a substitute for an official pre-flight weather briefing.

23:33:49 UTC

KCOE TAF
Coeur D'alene - Pappy Boyington Field Airport
Coeur D'alene, Idaho, USA
KCOE 181723Z 1818/1918 23015G23KT P6SM SCT025 SCT040 BKN250 FM190100 21008G16KT P6SM BKN060 FM190300 20006KT P6SM -RA OVC050 FM191000 20005KT P6SM -RA SCT015 OVC025 TEMPO 1914/1918 4SM -RA BR BKN015 OVC040

Oct-18@
18:00 UTC

Oct-18 @ 18:00 UTC

Oct-19@
01:00 UTC

Oct-19 @ 01:00 UTC

KCOE 181723Z 1818/1918 23015G23KT P6SM SCT025 SCT040 BKN250
Wind
  • 230° at 15 KTS
  • {Gusting to 23 KTS
Cloud Levels
  • Scattered at 2,500' AGL
  • Scattered at 4,000' AGL
  • Broken at 25,000' AGL

Oct-19@
01:00 UTC

Oct-19 @ 01:00 UTC

Oct-19@
03:00 UTC

Oct-19 @ 03:00 UTC

FM190100 21008G16KT P6SM BKN060

From

From Standard forecast or significant change

Wind
  • 210° at 8 KTS
  • {Gusting to 16 KTS
Cloud Levels
  • Broken at 6,000' AGL

Oct-19@
03:00 UTC

Oct-19 @ 03:00 UTC

Oct-19@
10:00 UTC

Oct-19 @ 10:00 UTC

FM190300 20006KT P6SM -RA OVC050

From

From Standard forecast or significant change

Wind
  • 200° at 6 KTS
Conditions
Light Rain
Cloud Levels
  • Overcast at 5,000' AGL

Oct-19@
10:00 UTC

Oct-19 @ 10:00 UTC

Oct-19@
18:00 UTC

Oct-19 @ 18:00 UTC

FM191000 20005KT P6SM -RA SCT015 OVC025

From

From Standard forecast or significant change

Wind
  • 200° at 5 KTS
Conditions
Light Rain
Cloud Levels
  • Scattered at 1,500' AGL
  • Overcast at 2,500' AGL

Oct-19@
14:00 UTC

Oct-19 @ 14:00 UTC

Oct-19@
18:00 UTC

Oct-19 @ 18:00 UTC

TEMPO 1914/1918 4SM -RA BR BKN015 OVC040

Temporary

Temporary Changes expected for less than half the time period

Conditions
Light Rain, Mist
Cloud Levels
  • Broken at 1,500' AGL
  • Overcast at 4,000' AGL